createdAt,value
2023-02-27T00:02:33.006Z,-2.89
2023-02-27T00:05:27.002Z,-2.89
2023-02-27T00:08:14.018Z,-2.89
2023-02-27T00:10:53.991Z,-2.90
2023-02-27T00:13:41.982Z,-2.92
2023-02-27T00:16:22.039Z,-2.98
2023-02-27T00:19:16.055Z,-2.99
2023-02-27T00:22:02.993Z,-3.01
2023-02-27T00:24:43.052Z,-3.01
2023-02-27T00:27:37.055Z,-3.02
2023-02-27T00:30:33.142Z,-2.98
2023-02-27T00:33:26.995Z,-2.99
2023-02-27T00:36:14.024Z,-3.01
2023-02-27T00:38:47.117Z,-3.00
2023-02-27T00:41:34.041Z,-3.04
2023-02-27T00:44:07.105Z,-3.03
2023-02-27T00:46:54.124Z,-3.03
2023-02-27T00:49:34.012Z,-3.05
2023-02-27T00:52:27.997Z,-3.05
2023-02-27T00:55:23.170Z,-2.99
2023-02-27T00:58:10.008Z,-3.02
2023-02-27T01:00:43.277Z,-3.10
2023-02-27T01:03:30.023Z,-3.08
2023-02-27T01:06:03.164Z,-3.06
2023-02-27T01:08:50.061Z,-3.06
2023-02-27T01:11:23.301Z,-3.06
2023-02-27T01:14:10.005Z,-3.06
2023-02-27T01:16:43.199Z,-3.07
2023-02-27T01:19:30.029Z,-3.05
2023-02-27T01:22:03.215Z,-3.03
2023-02-27T01:24:50.025Z,-3.03
2023-02-27T01:27:23.382Z,-3.04
2023-02-27T01:30:11.046Z,-3.02
2023-02-27T01:32:44.240Z,-3.02
2023-02-27T01:35:31.028Z,-2.99
2023-02-27T01:38:11.044Z,-2.98
2023-02-27T01:41:05.040Z,-3.03
2023-02-27T01:44:23.048Z,-3.03
2023-02-27T01:47:10.046Z,-3.01
2023-02-27T01:49:43.215Z,-2.99
2023-02-27T01:52:30.034Z,-2.97
2023-02-27T01:55:04.166Z,-2.99
2023-02-27T01:57:53.025Z,-2.97
2023-02-27T02:00:27.139Z,-2.98
2023-02-27T02:03:30.042Z,-2.97
2023-02-27T02:06:13.031Z,-3.01
2023-02-27T02:09:09.040Z,-3.00
2023-02-27T02:12:03.023Z,-3.03
2023-02-27T02:14:51.060Z,-3.02
2023-02-27T02:18:03.163Z,-2.99
2023-02-27T02:21:11.059Z,-3.06
2023-02-27T02:23:44.145Z,-3.02
2023-02-27T02:26:52.059Z,-3.04
2023-02-27T02:29:47.091Z,-3.01
2023-02-27T02:32:53.019Z,-3.03
2023-02-27T02:35:39.049Z,-3.02
2023-02-27T02:38:46.059Z,-3.00
2023-02-27T02:41:53.032Z,-3.02
2023-02-27T02:44:41.297Z,-3.01
2023-02-27T02:47:43.039Z,-3.00
2023-02-27T02:50:24.165Z,-3.02
2023-02-27T02:53:19.120Z,-3.11
2023-02-27T02:55:57.174Z,-3.08
2023-02-27T02:59:05.073Z,-3.08
2023-02-27T03:01:49.134Z,-3.02
2023-02-27T03:04:53.034Z,-3.00
2023-02-27T03:07:55.078Z,-2.97
2023-02-27T03:10:43.040Z,-2.99
2023-02-27T03:13:49.050Z,-2.99
2023-02-27T03:16:58.048Z,-3.03
2023-02-27T03:20:02.056Z,-3.04
2023-02-27T03:22:53.037Z,-3.03
2023-02-27T03:25:32.184Z,-3.03
2023-02-27T03:28:26.050Z,-3.01
2023-02-27T03:31:40.082Z,-3.03
2023-02-27T03:34:42.057Z,-3.02
2023-02-27T03:37:53.049Z,-3.04
2023-02-27T03:40:42.177Z,-3.00
2023-02-27T03:43:43.036Z,-3.00
2023-02-27T03:46:27.093Z,-3.00
2023-02-27T03:49:21.047Z,-3.01
2023-02-27T03:52:08.065Z,-3.08
2023-02-27T03:54:45.156Z,-3.09
2023-02-27T03:57:32.065Z,-3.12
2023-02-27T04:00:06.298Z,-3.16
2023-02-27T04:02:57.129Z,-3.17
2023-02-27T04:05:30.243Z,-3.16
2023-02-27T04:08:30.147Z,-3.17
2023-02-27T04:11:41.295Z,-3.15
2023-02-27T04:14:47.247Z,-3.19
2023-02-27T04:17:30.278Z,-3.19
2023-02-27T04:20:42.111Z,-3.17
2023-02-27T04:23:54.061Z,-3.19
2023-02-27T04:27:10.098Z,-3.22
2023-02-27T04:29:56.291Z,-3.22
2023-02-27T04:32:58.072Z,-3.22
2023-02-27T04:36:00.092Z,-3.24
2023-02-27T04:38:58.080Z,-3.25
2023-02-27T04:41:51.281Z,-3.31
2023-02-27T04:44:27.252Z,-3.33
2023-02-27T04:47:18.109Z,-3.34
2023-02-27T04:50:01.279Z,-3.31
2023-02-27T04:52:58.108Z,-3.29
2023-02-27T04:55:47.082Z,-3.30
2023-02-27T04:59:16.089Z,-3.35
2023-02-27T05:02:19.249Z,-3.34
2023-02-27T05:05:01.113Z,-3.40
2023-02-27T05:08:30.086Z,-3.42
2023-02-27T05:11:42.094Z,-3.41
2023-02-27T05:15:21.071Z,-3.45
2023-02-27T05:18:11.119Z,-3.44
2023-02-27T05:21:15.288Z,-3.43
2023-02-27T05:24:08.108Z,-3.46
2023-02-27T05:27:14.085Z,-3.49
2023-02-27T05:30:15.149Z,-3.57
2023-02-27T05:33:28.089Z,-3.60
2023-02-27T05:36:25.259Z,-3.58
2023-02-27T05:39:16.082Z,-3.60
2023-02-27T05:41:59.251Z,-3.60
2023-02-27T05:44:52.096Z,-3.59
2023-02-27T05:47:30.227Z,-3.58
2023-02-27T05:50:22.113Z,-3.58
2023-02-27T05:52:58.548Z,-3.60
2023-02-27T05:55:50.114Z,-3.58
2023-02-27T05:58:32.320Z,-3.55
2023-02-27T06:01:19.105Z,-3.53
2023-02-27T06:03:53.828Z,-3.55
2023-02-27T06:06:43.093Z,-3.50
2023-02-27T06:09:16.683Z,-3.49
2023-02-27T06:12:03.164Z,-3.49
2023-02-27T06:14:36.246Z,-3.48
2023-02-27T06:17:26.254Z,-3.46
2023-02-27T06:20:06.091Z,-3.44
2023-02-27T06:23:00.147Z,-3.40
2023-02-27T06:25:49.116Z,-3.40
2023-02-27T06:28:22.254Z,-3.37
2023-02-27T06:31:10.156Z,-3.33
2023-02-27T06:33:43.263Z,-3.31
2023-02-27T06:36:30.440Z,-3.23
2023-02-27T06:39:11.180Z,-3.16
2023-02-27T06:42:05.161Z,-3.13
2023-02-27T06:44:59.090Z,-3.10
2023-02-27T06:47:48.128Z,-3.12
2023-02-27T06:50:21.259Z,-3.08
2023-02-27T06:53:08.087Z,-3.11
2023-02-27T06:55:42.153Z,-3.08
2023-02-27T06:58:31.161Z,-3.05
2023-02-27T07:01:14.162Z,-3.05
2023-02-27T07:04:08.113Z,-3.02
2023-02-27T07:07:35.227Z,-2.97
2023-02-27T07:09:55.164Z,-2.94
2023-02-27T07:12:49.161Z,-2.86
2023-02-27T07:15:36.151Z,-2.88
2023-02-27T07:18:09.260Z,-2.89
2023-02-27T07:20:59.163Z,-2.76
2023-02-27T07:23:32.729Z,-2.71
2023-02-27T07:26:19.174Z,-2.63
2023-02-27T07:28:52.221Z,-2.56
2023-02-27T07:31:39.131Z,-2.53
2023-02-27T07:34:13.110Z,-2.47
2023-02-27T07:37:00.110Z,-2.50
2023-02-27T07:39:33.341Z,-2.52
2023-02-27T07:42:20.119Z,-2.60
2023-02-27T07:44:53.270Z,-2.58
2023-02-27T07:47:40.160Z,-2.50
2023-02-27T07:50:14.256Z,-2.49
2023-02-27T07:53:01.170Z,-2.57
2023-02-27T07:55:34.337Z,-2.57
2023-02-27T07:58:21.207Z,-2.56
2023-02-27T08:01:01.170Z,-2.55
2023-02-27T08:03:48.158Z,-2.49
2023-02-27T08:06:21.897Z,-2.47
2023-02-27T08:09:08.127Z,-2.42
2023-02-27T08:11:49.245Z,-2.45
2023-02-27T08:14:43.178Z,-2.39
2023-02-27T08:17:30.135Z,-2.38
2023-02-27T08:20:04.808Z,-2.34
2023-02-27T08:22:51.174Z,-2.32
2023-02-27T08:25:25.265Z,-2.35
2023-02-27T08:28:12.202Z,-2.41
2023-02-27T08:30:52.140Z,-2.46
2023-02-27T08:33:49.496Z,-2.48
2023-02-27T08:36:36.194Z,-2.49
2023-02-27T08:39:09.373Z,-2.56
2023-02-27T08:41:57.199Z,-2.57
2023-02-27T08:44:30.301Z,-2.55
2023-02-27T08:47:17.168Z,-2.52
2023-02-27T08:49:50.285Z,-2.60
2023-02-27T08:52:37.170Z,-2.52
2023-02-27T08:55:10.307Z,-2.46
2023-02-27T08:57:57.172Z,-2.40
2023-02-27T09:00:32.429Z,-2.32
2023-02-27T09:03:19.169Z,-2.29
2023-02-27T09:05:54.291Z,-2.28
2023-02-27T09:08:41.181Z,-2.32
2023-02-27T09:11:21.175Z,-2.28
2023-02-27T09:14:08.197Z,-2.25
2023-02-27T09:16:48.301Z,-2.18
2023-02-27T09:19:42.213Z,-2.11
2023-02-27T09:22:29.182Z,-2.15
2023-02-27T09:25:02.340Z,-2.18
2023-02-27T09:27:51.208Z,-2.25
2023-02-27T09:30:24.346Z,-2.23
2023-02-27T09:33:11.172Z,-2.22
2023-02-27T09:35:44.322Z,-2.19
2023-02-27T09:38:31.172Z,-2.08
2023-02-27T09:41:04.288Z,-1.96
2023-02-27T09:43:54.196Z,-1.83
2023-02-27T09:46:30.305Z,-1.82
2023-02-27T09:49:22.195Z,-1.92
2023-02-27T09:51:58.282Z,-1.95
2023-02-27T09:54:45.177Z,-1.87
2023-02-27T09:57:25.804Z,-1.80
2023-02-27T10:00:25.190Z,-1.67
2023-02-27T10:03:40.232Z,-1.57
2023-02-27T10:06:55.201Z,-1.47
2023-02-27T10:09:58.201Z,-1.48
2023-02-27T10:12:56.197Z,-1.45
2023-02-27T10:16:00.244Z,-1.50
2023-02-27T10:19:04.213Z,-1.51
2023-02-27T10:22:01.201Z,-1.53
2023-02-27T10:24:54.260Z,-1.51
2023-02-27T10:27:36.197Z,-1.50
2023-02-27T10:30:36.411Z,-1.50
2023-02-27T10:33:34.234Z,-1.46
2023-02-27T10:36:32.413Z,-1.29
2023-02-27T10:39:24.274Z,-1.33
2023-02-27T10:41:58.320Z,-1.35
2023-02-27T10:44:45.195Z,-1.35
2023-02-27T10:47:31.213Z,-1.45
2023-02-27T10:50:39.205Z,-1.48
2023-02-27T10:53:32.205Z,-1.48
2023-02-27T10:56:12.349Z,-1.42
2023-02-27T10:59:16.337Z,-1.36
2023-02-27T11:05:15.185Z,-1.36
2023-02-27T11:08:23.212Z,-1.35
2023-02-27T11:11:18.276Z,-1.39
2023-02-27T11:14:31.211Z,-1.34
2023-02-27T11:17:09.393Z,-1.33
2023-02-27T11:19:56.252Z,-1.23
2023-02-27T11:22:39.209Z,-1.22
2023-02-27T11:25:31.200Z,-1.20
2023-02-27T11:28:41.214Z,-1.20
2023-02-27T11:31:37.233Z,-1.16
2023-02-27T11:34:35.220Z,-1.18
2023-02-27T11:37:33.375Z,-1.26
2023-02-27T11:40:22.228Z,-1.24
2023-02-27T11:43:30.260Z,-1.18
2023-02-27T11:46:46.311Z,-1.19
2023-02-27T11:49:35.219Z,-1.20
2023-02-27T11:52:37.192Z,-1.18
2023-02-27T11:55:29.227Z,-1.21
2023-02-27T11:58:30.266Z,-1.23
2023-02-27T12:01:34.292Z,-1.17
2023-02-27T12:04:24.332Z,-1.12
2023-02-27T12:07:36.257Z,-1.14
2023-02-27T12:10:32.225Z,-1.14
2023-02-27T12:13:33.342Z,-1.06
2023-02-27T12:16:33.298Z,-0.99
2023-02-27T12:19:44.348Z,-0.94
2023-02-27T12:22:40.266Z,-0.89
2023-02-27T12:25:29.432Z,-0.80
2023-02-27T12:28:42.221Z,-0.70
2023-02-27T12:31:33.231Z,-0.70
2023-02-27T12:35:02.260Z,-0.58
2023-02-27T12:37:49.229Z,-0.63
2023-02-27T12:40:24.357Z,-0.74
2023-02-27T12:43:29.310Z,-0.56
2023-02-27T12:46:34.254Z,-0.48
2023-02-27T12:49:49.209Z,-0.50
2023-02-27T12:52:56.228Z,-0.56
2023-02-27T12:55:35.402Z,-0.51
2023-02-27T12:58:31.281Z,-0.58
2023-02-27T13:01:50.349Z,-0.53
2023-02-27T13:05:04.318Z,-0.53
2023-02-27T13:08:16.272Z,-0.71
2023-02-27T13:11:21.290Z,-0.84
2023-02-27T13:13:59.366Z,-0.75
2023-02-27T13:16:49.387Z,-0.70
2023-02-27T13:19:37.413Z,-0.66
2023-02-27T13:22:40.241Z,-0.66
2023-02-27T13:25:20.392Z,-0.60
2023-02-27T13:28:11.258Z,-0.57
2023-02-27T13:31:14.319Z,-0.54
2023-02-27T13:34:18.275Z,-0.60
2023-02-27T13:37:11.340Z,-0.68
2023-02-27T13:39:51.948Z,-0.67
2023-02-27T13:42:39.278Z,-0.79
2023-02-27T13:45:51.501Z,-0.79
2023-02-27T13:48:48.256Z,-0.81
2023-02-27T13:51:50.304Z,-0.86
2023-02-27T13:54:57.289Z,-0.97
2023-02-27T13:57:46.266Z,-1.00
2023-02-27T14:00:31.372Z,-0.93
2023-02-27T14:03:28.270Z,-0.92
2023-02-27T14:06:12.246Z,-0.92
2023-02-27T14:09:14.873Z,-0.96
2023-02-27T14:12:06.275Z,-1.01
2023-02-27T14:14:52.253Z,-1.02
2023-02-27T14:17:54.666Z,-1.07
2023-02-27T14:20:46.270Z,-1.10
2023-02-27T14:23:22.418Z,-1.10
2023-02-27T14:26:22.480Z,-1.14
2023-02-27T14:29:04.407Z,-1.23
2023-02-27T14:31:52.341Z,-1.31
2023-02-27T14:34:28.401Z,-1.31
2023-02-27T14:37:23.283Z,-1.36
2023-02-27T14:40:08.467Z,-1.36
2023-02-27T14:43:08.277Z,-1.34
2023-02-27T14:45:48.388Z,-1.32
2023-02-27T14:48:44.277Z,-1.30
2023-02-27T14:51:32.262Z,-1.33
2023-02-27T14:54:32.399Z,-1.38
2023-02-27T14:57:13.312Z,-1.41
2023-02-27T14:59:56.269Z,-1.44
2023-02-27T15:02:38.386Z,-1.43
2023-02-27T15:05:31.797Z,-1.51
2023-02-27T15:08:14.284Z,-1.50
2023-02-27T15:11:10.280Z,-1.52
2023-02-27T15:14:24.264Z,-1.55
2023-02-27T15:17:23.283Z,-1.51
2023-02-27T15:20:06.382Z,-1.50
2023-02-27T15:22:53.334Z,-1.50
2023-02-27T15:25:42.386Z,-1.50
2023-02-27T15:28:33.283Z,-1.53
2023-02-27T15:31:13.407Z,-1.55
2023-02-27T15:34:07.269Z,-1.62
2023-02-27T15:37:04.337Z,-1.67
2023-02-27T15:39:47.001Z,-1.64
2023-02-27T15:42:38.303Z,-1.68
2023-02-27T15:45:13.386Z,-1.71
2023-02-27T15:48:00.332Z,-1.72
2023-02-27T15:50:44.392Z,-1.74
2023-02-27T15:53:36.350Z,-1.75
2023-02-27T15:56:18.403Z,-1.79
2023-02-27T15:59:07.338Z,-1.85
2023-02-27T16:01:48.350Z,-1.85
2023-02-27T16:04:42.283Z,-1.86
2023-02-27T16:07:39.338Z,-1.92
2023-02-27T16:10:31.331Z,-1.93
2023-02-27T16:13:04.368Z,-1.93
2023-02-27T16:15:51.354Z,-1.97
2023-02-27T16:18:24.384Z,-1.96
2023-02-27T16:21:17.310Z,-1.98
2023-02-27T16:23:52.428Z,-1.99
2023-02-27T16:26:43.312Z,-1.99
2023-02-27T16:29:26.445Z,-1.99
2023-02-27T16:32:31.351Z,-2.03
2023-02-27T16:35:18.303Z,-2.02
2023-02-27T16:38:15.329Z,-2.01
2023-02-27T16:41:02.390Z,-2.02
2023-02-27T16:43:35.464Z,-2.00
2023-02-27T16:46:28.628Z,-2.00
2023-02-27T16:49:17.861Z,-1.99
2023-02-27T16:52:05.297Z,-1.98
2023-02-27T16:54:38.429Z,-1.99
2023-02-27T16:57:25.298Z,-1.99
2023-02-27T17:00:05.312Z,-1.98
2023-02-27T17:02:53.299Z,-2.00
2023-02-27T17:05:26.543Z,-2.04
2023-02-27T17:08:13.359Z,-2.05
2023-02-27T17:10:46.413Z,-2.11
2023-02-27T17:13:33.447Z,-2.15
2023-02-27T17:16:06.432Z,-2.15
2023-02-27T17:18:53.343Z,-2.19
2023-02-27T17:21:27.548Z,-2.20
2023-02-27T17:24:14.326Z,-2.24
2023-02-27T17:26:54.336Z,-2.26
2023-02-27T17:29:44.324Z,-2.27
2023-02-27T17:32:24.375Z,-2.31
2023-02-27T17:35:18.326Z,-2.34
2023-02-27T17:38:07.480Z,-2.35
2023-02-27T17:40:43.531Z,-2.39
2023-02-27T17:43:30.341Z,-2.40
2023-02-27T17:46:03.473Z,-2.39
2023-02-27T17:48:50.343Z,-2.39
2023-02-27T17:51:31.355Z,-2.39
2023-02-27T17:54:25.351Z,-2.38
2023-02-27T17:57:13.334Z,-2.38
2023-02-27T17:59:53.336Z,-2.40
2023-02-27T18:02:40.375Z,-2.40
2023-02-27T18:05:13.546Z,-2.41
2023-02-27T18:08:00.345Z,-2.39
2023-02-27T18:10:40.346Z,-2.39
2023-02-27T18:13:34.450Z,-2.38
2023-02-27T18:16:21.342Z,-2.36
2023-02-27T18:18:55.463Z,-2.34
2023-02-27T18:21:42.403Z,-2.32
2023-02-27T18:24:23.363Z,-2.33
2023-02-27T18:27:18.345Z,-2.35
2023-02-27T18:30:12.383Z,-2.33
2023-02-27T18:33:10.332Z,-2.34
2023-02-27T18:35:57.430Z,-2.33
2023-02-27T18:38:37.365Z,-2.35
2023-02-27T18:41:31.343Z,-2.38
2023-02-27T18:44:18.353Z,-2.40
2023-02-27T18:46:58.410Z,-2.40
2023-02-27T18:49:52.372Z,-2.42
2023-02-27T18:52:39.355Z,-2.45
2023-02-27T18:55:13.458Z,-2.43
2023-02-27T18:58:00.354Z,-2.40
2023-02-27T19:00:33.486Z,-2.41
2023-02-27T19:03:20.414Z,-2.40
2023-02-27T19:06:00.356Z,-2.39
2023-02-27T19:08:54.342Z,-2.42
2023-02-27T19:11:48.392Z,-2.41
2023-02-27T19:14:35.401Z,-2.42
2023-02-27T19:17:15.351Z,-2.41
2023-02-27T19:20:09.408Z,-2.43
2023-02-27T19:22:56.390Z,-2.47
2023-02-27T19:25:29.970Z,-2.49
2023-02-27T19:28:18.364Z,-2.48
2023-02-27T19:30:52.651Z,-2.53
2023-02-27T19:33:39.356Z,-2.50
2023-02-27T19:36:17.799Z,-2.50
2023-02-27T19:39:05.354Z,-2.52
2023-02-27T19:41:38.487Z,-2.54
2023-02-27T19:44:25.366Z,-2.58
2023-02-27T19:47:05.482Z,-2.57
2023-02-27T19:49:52.378Z,-2.55
2023-02-27T19:52:25.464Z,-2.57
2023-02-27T19:55:13.400Z,-2.57
2023-02-27T19:57:46.491Z,-2.58
2023-02-27T20:00:33.386Z,-2.58
2023-02-27T20:03:06.472Z,-2.60
2023-02-27T20:05:53.373Z,-2.63
2023-02-27T20:08:26.545Z,-2.64
2023-02-27T20:11:13.388Z,-2.67
2023-02-27T20:13:46.559Z,-2.70
2023-02-27T20:16:36.391Z,-2.73
2023-02-27T20:19:13.898Z,-2.80
2023-02-27T20:22:03.402Z,-2.83
2023-02-27T20:24:36.481Z,-2.86
2023-02-27T20:27:23.398Z,-2.87
2023-02-27T20:30:08.401Z,-2.90
2023-02-27T20:33:03.423Z,-2.93
2023-02-27T20:35:57.398Z,-2.95
2023-02-27T20:38:45.398Z,-2.98
2023-02-27T20:41:29.962Z,-3.01
2023-02-27T20:44:18.391Z,-3.04
2023-02-27T20:46:58.432Z,-3.07
2023-02-27T20:49:52.385Z,-3.11
2023-02-27T20:52:39.406Z,-3.10
2023-02-27T20:55:13.509Z,-3.13
2023-02-27T20:58:00.407Z,-3.17
2023-02-27T21:00:33.560Z,-3.17
2023-02-27T21:03:20.412Z,-3.20
2023-02-27T21:05:54.489Z,-3.20
2023-02-27T21:08:43.409Z,-3.22
2023-02-27T21:11:37.400Z,-3.24
2023-02-27T21:14:24.429Z,-3.26
2023-02-27T21:16:57.491Z,-3.28
2023-02-27T21:19:46.420Z,-3.29
2023-02-27T21:22:19.503Z,-3.31
2023-02-27T21:25:06.428Z,-3.35
2023-02-27T21:27:46.476Z,-3.40
2023-02-27T21:30:40.406Z,-3.48
2023-02-27T21:33:35.448Z,-3.49
2023-02-27T21:36:29.427Z,-3.52
2023-02-27T21:39:21.429Z,-3.55
2023-02-27T21:42:02.469Z,-3.58
2023-02-27T21:44:56.407Z,-3.63
2023-02-27T21:47:43.416Z,-3.63
2023-02-27T21:50:21.764Z,-3.64
2023-02-27T21:53:08.444Z,-3.65
2023-02-27T21:55:41.539Z,-3.66
2023-02-27T21:58:29.481Z,-3.69
2023-02-27T22:01:03.317Z,-3.73
2023-02-27T22:03:51.441Z,-3.74
2023-02-27T22:06:33.415Z,-3.79
2023-02-27T22:09:27.454Z,-3.84
2023-02-27T22:12:16.142Z,-3.87
2023-02-27T22:14:49.816Z,-3.90
2023-02-27T22:17:36.427Z,-3.91
2023-02-27T22:20:16.433Z,-3.93
2023-02-27T22:23:11.417Z,-3.95
2023-02-27T22:26:08.466Z,-3.94
2023-02-27T22:28:42.628Z,-3.99
2023-02-27T22:31:38.512Z,-4.01
2023-02-27T22:34:25.429Z,-4.01
2023-02-27T22:37:05.413Z,-4.02
2023-02-27T22:40:01.582Z,-4.04
2023-02-27T22:42:58.424Z,-4.09
2023-02-27T22:45:38.437Z,-4.12
2023-02-27T22:48:32.424Z,-4.12
2023-02-27T22:51:28.989Z,-4.12
2023-02-27T22:54:23.444Z,-4.12
2023-02-27T22:57:12.483Z,-4.14
2023-02-27T22:59:52.449Z,-4.13
2023-02-27T23:02:46.446Z,-4.14
2023-02-27T23:05:33.463Z,-4.12
2023-02-27T23:08:06.549Z,-4.15
2023-02-27T23:10:53.457Z,-4.13
2023-02-27T23:13:33.566Z,-4.13
2023-02-27T23:16:27.680Z,-4.15
2023-02-27T23:19:14.459Z,-4.16
2023-02-27T23:21:47.612Z,-4.15
2023-02-27T23:24:34.440Z,-4.18
2023-02-27T23:27:25.074Z,-4.17
2023-02-27T23:30:13.492Z,-4.23
2023-02-27T23:32:46.652Z,-4.27
2023-02-27T23:35:34.495Z,-4.29
2023-02-27T23:38:07.707Z,-4.30
2023-02-27T23:40:54.432Z,-4.30
2023-02-27T23:43:35.441Z,-4.35
2023-02-27T23:46:29.430Z,-4.32
2023-02-27T23:49:17.446Z,-4.31
2023-02-27T23:51:57.426Z,-4.35
2023-02-27T23:54:44.418Z,-4.33
2023-02-27T23:57:24.448Z,-4.37
